Time;durP1;ratioP1;P1;durP2;ratioP2;P2;SDS_P1;SDS_P2;PMS_P1;PMS_P2;Temp;Humidity;BMP_temperature;BMP_pressure;BME280_temperature;BME280_humidity;BME280_pressure;Samples;Min_cycle;Max_cycle;Signal;HPM_P1;HPM_P2
2021/08/25 00:00:49;;;;;;;2.47;1.80;;;22.80;55.10;;;;;;6247837;28;20030;-76
2021/08/25 00:03:50;;;;;;;2.00;1.60;;;22.70;55.30;;;;;;6247267;28;20056;-76
2021/08/25 00:06:51;;;;;;;3.88;1.40;;;22.70;55.70;;;;;;6247910;28;20049;-76
2021/08/25 00:09:52;;;;;;;2.97;1.88;;;22.60;55.70;;;;;;6230979;28;20044;-76
2021/08/25 00:12:53;;;;;;;4.00;1.92;;;22.60;55.70;;;;;;6247431;28;20088;-76
2021/08/25 00:15:54;;;;;;;4.05;1.83;;;22.50;55.70;;;;;;6248814;28;20121;-76
2021/08/25 00:18:55;;;;;;;3.30;1.90;;;22.50;55.70;;;;;;6231355;28;20037;-76
2021/08/25 00:21:56;;;;;;;5.28;2.08;;;22.50;55.70;;;;;;6249476;28;20099;-76
2021/08/25 00:24:57;;;;;;;4.53;2.10;;;22.40;55.60;;;;;;6231401;28;20520;-76
2021/08/25 00:27:59;;;;;;;5.35;1.63;;;22.40;55.50;;;;;;6249017;28;20045;-77
2021/08/25 00:31:00;;;;;;;2.15;1.45;;;22.40;55.40;;;;;;6248217;28;20034;-77
2021/08/25 00:34:01;;;;;;;3.25;1.50;;;22.50;55.30;;;;;;6230719;28;20488;-77
2021/08/25 00:37:02;;;;;;;3.80;1.80;;;22.50;55.20;;;;;;6247676;28;20405;-77
2021/08/25 00:40:04;;;;;;;4.05;2.03;;;22.50;55.20;;;;;;6248366;28;20045;-77
2021/08/25 00:43:10;;;;;;;2.92;1.52;;;22.50;55.00;;;;;;6247329;28;20064;-77
2021/08/25 00:46:11;;;;;;;5.55;1.70;;;22.60;55.00;;;;;;6246795;28;20049;-77
2021/08/25 00:49:16;;;;;;;5.50;1.90;;;22.50;55.10;;;;;;6247770;28;20033;-77
2021/08/25 00:52:16;;;;;;;3.42;1.73;;;22.60;55.10;;;;;;6246772;28;20041;-77
2021/08/25 00:55:17;;;;;;;2.60;1.60;;;22.50;55.10;;;;;;6248436;28;20082;-78
2021/08/25 00:58:18;;;;;;;3.47;1.50;;;22.60;55.20;;;;;;6245625;28;20041;-77
2021/08/25 01:01:46;;;;;;;3.05;1.90;;;22.50;55.30;;;;;;6248956;28;20120;-77
2021/08/25 01:04:57;;;;;;;2.47;1.60;;;22.40;55.40;;;;;;6242431;28;20395;-77
2021/08/25 01:08:01;;;;;;;4.28;1.80;;;22.40;55.40;;;;;;6244321;28;20052;-76
2021/08/25 01:11:09;;;;;;;6.53;2.00;;;22.40;55.60;;;;;;6227508;28;20030;-76
2021/08/25 01:14:11;;;;;;;5.05;1.60;;;22.40;55.70;;;;;;6244218;28;20113;-76
2021/08/25 01:17:13;;;;;;;11.85;2.15;;;22.30;55.70;;;;;;6226678;28;20033;-76
2021/08/25 01:20:14;;;;;;;5.07;1.98;;;22.40;55.80;;;;;;6244329;28;20075;-76
2021/08/25 01:23:22;;;;;;;2.78;1.52;;;22.30;55.80;;;;;;6243924;28;20033;-76
2021/08/25 01:26:24;;;;;;;3.35;1.73;;;22.30;55.90;;;;;;6244980;28;20474;-76
2021/08/25 01:29:28;;;;;;;2.83;1.88;;;22.30;56.00;;;;;;6246733;28;20030;-76
2021/08/25 01:32:32;;;;;;;8.65;2.08;;;22.30;56.10;;;;;;6243765;28;20384;-76
2021/08/25 01:35:43;;;;;;;6.38;1.85;;;22.20;56.20;;;;;;6242995;28;20064;-77
2021/08/25 01:38:55;;;;;;;1.98;1.75;;;22.20;56.40;;;;;;6242687;28;20038;-76
2021/08/25 01:41:56;;;;;;;4.35;1.92;;;22.20;56.50;;;;;;6227854;28;20038;-76
2021/08/25 01:44:57;;;;;;;4.10;2.15;;;22.10;56.50;;;;;;6244172;28;20501;-76
2021/08/25 01:47:58;;;;;;;2.53;1.63;;;22.10;56.60;;;;;;6243002;28;20056;-77
2021/08/25 01:51:00;;;;;;;5.50;1.77;;;22.10;56.70;;;;;;6242708;28;20034;-77
2021/08/25 01:54:02;;;;;;;8.00;2.10;;;22.00;56.80;;;;;;6228403;28;20493;-76
2021/08/25 01:57:07;;;;;;;6.05;1.88;;;22.00;56.90;;;;;;6257924;28;20478;-76
2021/08/25 02:00:09;;;;;;;2.80;1.83;;;21.90;56.90;;;;;;6246242;28;20037;-76
2021/08/25 02:03:09;;;;;;;4.18;1.88;;;21.90;57.00;;;;;;6243985;28;20033;-77
2021/08/25 02:06:10;;;;;;;4.45;2.47;;;21.90;57.00;;;;;;6249912;28;20095;-77
2021/08/25 02:09:11;;;;;;;5.15;2.08;;;21.80;56.90;;;;;;6249908;28;20351;-77
2021/08/25 02:12:12;;;;;;;2.67;1.88;;;21.80;56.90;;;;;;6249354;28;20041;-77
2021/08/25 02:15:13;;;;;;;4.47;1.60;;;21.80;56.90;;;;;;6232036;28;20045;-77
2021/08/25 02:18:14;;;;;;;2.08;1.60;;;21.80;56.90;;;;;;6251017;28;20030;-77
2021/08/25 02:21:15;;;;;;;4.82;1.73;;;21.80;56.90;;;;;;6249754;28;20053;-77
2021/08/25 02:24:16;;;;;;;3.47;1.73;;;21.80;56.90;;;;;;6233275;28;20468;-77
2021/08/25 02:27:17;;;;;;;4.90;1.92;;;21.80;56.90;;;;;;6249873;28;20041;-76
2021/08/25 02:30:18;;;;;;;5.53;1.23;;;21.80;56.90;;;;;;6249287;28;20123;-77
2021/08/25 02:33:19;;;;;;;4.80;1.40;;;21.80;56.90;;;;;;6233625;28;20041;-76
2021/08/25 02:36:22;;;;;;;2.92;1.70;;;21.80;56.80;;;;;;6208731;28;20037;-77
2021/08/25 02:39:23;;;;;;;8.48;1.58;;;21.80;56.80;;;;;;6246322;28;20454;-76
2021/08/25 02:42:24;;;;;;;1.60;1.30;;;21.80;56.80;;;;;;6248780;28;20030;-76
2021/08/25 02:45:25;;;;;;;2.00;1.40;;;21.80;56.80;;;;;;6232148;28;20091;-76
2021/08/25 02:48:26;;;;;;;2.42;1.42;;;21.80;56.80;;;;;;6232898;28;20370;-77
2021/08/25 02:51:27;;;;;;;1.90;1.50;;;21.80;56.70;;;;;;6248997;28;20041;-76
2021/08/25 02:54:28;;;;;;;4.57;1.67;;;21.80;56.70;;;;;;6249924;28;20441;-76
2021/08/25 02:57:29;;;;;;;5.85;1.90;;;21.80;56.60;;;;;;6232165;28;20029;-76
2021/08/25 03:00:30;;;;;;;2.30;1.63;;;21.80;56.60;;;;;;6248825;28;20041;-76
2021/08/25 03:03:30;;;;;;;2.08;1.58;;;21.80;56.50;;;;;;6247801;28;20057;-76
2021/08/25 03:06:31;;;;;;;1.92;1.45;;;21.90;56.50;;;;;;6248851;28;20080;-76
2021/08/25 03:09:32;;;;;;;2.53;1.50;;;21.90;56.40;;;;;;6248392;28;20048;-76
2021/08/25 03:12:36;;;;;;;4.50;1.80;;;21.90;56.30;;;;;;6247381;28;20116;-76
2021/08/25 03:15:37;;;;;;;3.53;1.50;;;22.00;56.30;;;;;;6246949;28;20041;-76
2021/08/25 03:18:37;;;;;;;1.70;1.27;;;22.00;56.10;;;;;;6247332;28;20057;-76
2021/08/25 03:21:41;;;;;;;3.63;1.55;;;22.00;56.10;;;;;;6233343;28;20061;-76
2021/08/25 03:24:42;;;;;;;1.90;1.30;;;22.00;56.00;;;;;;6245097;28;20041;-76
2021/08/25 03:27:43;;;;;;;1.27;1.00;;;22.10;56.00;;;;;;6248810;28;20474;-76
2021/08/25 03:30:44;;;;;;;2.90;1.50;;;22.10;56.60;;;;;;6249524;28;20041;-76
2021/08/25 03:33:45;;;;;;;3.00;1.60;;;22.10;56.00;;;;;;6249029;28;20038;-77
2021/08/25 03:36:45;;;;;;;2.15;1.60;;;22.10;56.00;;;;;;6249665;28;20033;-76
2021/08/25 03:39:46;;;;;;;3.95;1.60;;;22.20;56.00;;;;;;6232263;28;20033;-76
2021/08/25 03:42:48;;;;;;;3.13;1.85;;;22.20;56.10;;;;;;6247827;28;20030;-76
2021/08/25 03:45:49;;;;;;;1.63;1.48;;;22.10;56.20;;;;;;6247964;28;20033;-76
2021/08/25 03:48:50;;;;;;;3.42;1.75;;;22.10;56.40;;;;;;6250032;28;20037;-76
2021/08/25 03:51:51;;;;;;;2.33;1.73;;;22.10;56.50;;;;;;6247614;28;20057;-76
2021/08/25 03:54:52;;;;;;;1.58;1.40;;;22.10;56.70;;;;;;6249325;28;20362;-77
2021/08/25 03:57:53;;;;;;;5.05;1.77;;;22.10;56.80;;;;;;6227891;28;20088;-76
2021/08/25 04:00:54;;;;;;;4.18;2.08;;;22.00;56.80;;;;;;6247793;28;20030;-76
2021/08/25 04:03:55;;;;;;;6.72;1.90;;;22.00;56.80;;;;;;6248269;28;20075;-76
2021/08/25 04:06:56;;;;;;;3.25;1.63;;;22.00;56.80;;;;;;6247944;28;20053;-76
2021/08/25 04:09:57;;;;;;;1.80;1.60;;;22.00;56.70;;;;;;6247514;28;20466;-76
2021/08/25 04:12:58;;;;;;;4.75;1.60;;;22.00;56.50;;;;;;6231178;28;20037;-76
2021/08/25 04:15:59;;;;;;;3.03;1.60;;;22.10;56.50;;;;;;6226994;28;20041;-76
2021/08/25 04:19:00;;;;;;;5.80;1.75;;;22.10;56.30;;;;;;6248284;28;20053;-76
2021/08/25 04:22:00;;;;;;;2.47;1.35;;;22.10;56.20;;;;;;6246699;28;20040;-76
2021/08/25 04:25:02;;;;;;;4.32;1.88;;;22.10;56.20;;;;;;6249439;28;20438;-76
2021/08/25 04:28:03;;;;;;;8.50;1.40;;;22.10;56.30;;;;;;6231332;28;20045;-76
2021/08/25 04:31:04;;;;;;;2.22;1.80;;;22.10;56.20;;;;;;6246674;28;20037;-76
2021/08/25 04:34:04;;;;;;;3.75;1.92;;;22.10;56.20;;;;;;6247403;28;20522;-76
2021/08/25 04:37:05;;;;;;;2.53;1.77;;;22.00;56.10;;;;;;6248240;28;20364;-76
2021/08/25 04:40:07;;;;;;;2.08;1.50;;;22.00;56.10;;;;;;6248151;28;20391;-76
2021/08/25 04:43:08;;;;;;;3.47;1.63;;;22.00;56.10;;;;;;6247745;28;20037;-76
2021/08/25 04:46:14;;;;;;;2.53;1.52;;;22.00;56.00;;;;;;6222502;28;20088;-76
2021/08/25 04:49:15;;;;;;;2.83;1.60;;;22.00;55.80;;;;;;6223810;28;20474;-76
2021/08/25 04:52:16;;;;;;;4.57;1.65;;;22.00;55.90;;;;;;6213883;28;20096;-76
2021/08/25 04:55:17;;;;;;;4.90;2.08;;;22.00;55.80;;;;;;6230910;28;20370;-76
2021/08/25 04:58:18;;;;;;;2.35;1.52;;;22.00;55.80;;;;;;6247120;28;20091;-76
2021/08/25 05:01:18;;;;;;;5.60;1.73;;;22.00;55.80;;;;;;6247717;28;20037;-76
2021/08/25 05:04:21;;;;;;;2.50;1.85;;;22.10;55.90;;;;;;6246813;28;20059;-76
2021/08/25 05:07:21;;;;;;;2.25;1.67;;;22.10;55.80;;;;;;6246929;28;20034;-76
2021/08/25 05:10:23;;;;;;;2.50;1.38;;;22.00;55.80;;;;;;6247379;28;20034;-76
2021/08/25 05:13:25;;;;;;;2.08;1.65;;;22.00;55.80;;;;;;6248319;28;20034;-76
2021/08/25 05:16:26;;;;;;;2.28;1.58;;;22.00;55.80;;;;;;6248185;28;20351;-76
2021/08/25 05:19:27;;;;;;;3.70;1.98;;;22.00;55.70;;;;;;6247494;28;20030;-76
2021/08/25 05:22:28;;;;;;;1.65;1.50;;;22.00;55.70;;;;;;6246372;28;20029;-76
2021/08/25 05:25:29;;;;;;;2.20;1.30;;;22.00;55.70;;;;;;6246303;28;20061;-76
2021/08/25 05:28:30;;;;;;;1.73;1.40;;;22.00;55.70;;;;;;6246673;28;20136;-76
2021/08/25 05:31:34;;;;;;;3.63;1.88;;;22.10;55.80;;;;;;6246034;28;20033;-76
2021/08/25 05:34:35;;;;;;;3.38;1.55;;;22.10;55.70;;;;;;6229268;28;20509;-76
2021/08/25 05:37:36;;;;;;;2.00;1.60;;;22.10;55.60;;;;;;6246971;28;21604;-77
2021/08/25 05:40:37;;;;;;;2.63;1.67;;;22.20;55.60;;;;;;6245893;28;20037;-78
2021/08/25 05:43:38;;;;;;;6.50;1.83;;;22.20;55.50;;;;;;6229412;28;20041;-75
2021/08/25 05:46:39;;;;;;;4.53;1.48;;;22.20;55.50;;;;;;6242907;28;20473;-77
2021/08/25 05:49:40;;;;;;;4.53;2.00;;;22.30;55.50;;;;;;6227751;28;20373;-77
2021/08/25 05:52:41;;;;;;;5.60;2.38;;;22.30;55.40;;;;;;6221783;28;20045;-76
2021/08/25 05:55:41;;;;;;;2.47;1.60;;;22.30;55.30;;;;;;6237261;28;20046;-77
2021/08/25 05:58:42;;;;;;;3.33;2.08;;;22.30;55.30;;;;;;6228621;28;20437;-77
2021/08/25 06:01:43;;;;;;;8.80;1.98;;;22.30;55.20;;;;;;6227943;28;20042;-77
2021/08/25 06:04:44;;;;;;;3.03;1.77;;;22.30;55.10;;;;;;6245345;28;20048;-76
2021/08/25 06:07:45;;;;;;;7.65;1.60;;;22.30;55.10;;;;;;6229859;28;20052;-76
2021/08/25 06:10:47;;;;;;;3.65;1.60;;;22.30;55.10;;;;;;6247291;28;20054;-76
2021/08/25 06:13:48;;;;;;;2.90;1.50;;;22.40;55.10;;;;;;6243928;28;20029;-77
2021/08/25 06:16:49;;;;;;;4.82;1.85;;;22.40;55.10;;;;;;6244962;28;20069;-76
2021/08/25 06:19:50;;;;;;;4.45;2.50;;;22.40;55.10;;;;;;6244218;28;20041;-76
2021/08/25 06:22:52;;;;;;;8.60;2.33;;;22.40;55.10;;;;;;6243083;28;20033;-76
2021/08/25 06:25:53;;;;;;;6.07;1.75;;;22.50;55.10;;;;;;6240442;28;20034;-76
2021/08/25 06:28:54;;;;;;;2.97;1.75;;;22.50;55.10;;;;;;6227088;28;20049;-76
2021/08/25 06:31:55;;;;;;;8.98;2.20;;;22.50;55.10;;;;;;6243116;28;20300;-77
2021/08/25 06:34:56;;;;;;;10.52;1.90;;;22.60;55.20;;;;;;6228432;28;20075;-76
2021/08/25 06:37:57;;;;;;;3.63;1.95;;;22.60;55.10;;;;;;6242650;28;20041;-76
2021/08/25 06:40:58;;;;;;;3.25;1.85;;;22.60;55.00;;;;;;6229003;28;20426;-76
2021/08/25 06:43:59;;;;;;;3.30;1.67;;;22.70;55.00;;;;;;6244498;28;20038;-78
2021/08/25 06:47:00;;;;;;;8.55;2.55;;;22.70;54.90;;;;;;6247000;28;20412;-76
2021/08/25 06:50:05;;;;;;;6.32;2.05;;;22.70;55.00;;;;;;6229744;28;20088;-78
2021/08/25 06:53:06;;;;;;;3.45;1.80;;;22.70;55.00;;;;;;6243803;28;20642;-75
2021/08/25 06:56:08;;;;;;;5.50;2.55;;;22.80;54.90;;;;;;6248743;28;20103;-77
2021/08/25 06:59:09;;;;;;;4.03;1.92;;;22.80;54.80;;;;;;6249093;28;20033;-75
2021/08/25 07:02:10;;;;;;;12.10;2.00;;;22.90;54.70;;;;;;6246060;28;20045;-76
2021/08/25 07:05:11;;;;;;;3.55;2.00;;;22.90;54.60;;;;;;6249464;28;20033;-76
2021/08/25 07:08:13;;;;;;;6.82;2.35;;;22.90;54.60;;;;;;6249383;28;20029;-76
2021/08/25 07:11:14;;;;;;;2.65;1.70;;;22.90;54.70;;;;;;6249089;28;20060;-76
2021/08/25 07:14:16;;;;;;;4.18;2.05;;;22.90;54.60;;;;;;6248063;28;20128;-76
2021/08/25 07:17:17;;;;;;;10.30;2.20;;;23.10;54.70;;;;;;6249350;28;20116;-76
2021/08/25 07:20:18;;;;;;;4.40;2.25;;;23.10;54.60;;;;;;6221499;28;20459;-76
2021/08/25 07:23:19;;;;;;;3.45;2.05;;;23.20;54.50;;;;;;6224550;28;20041;-76
2021/08/25 07:26:20;;;;;;;4.03;1.98;;;23.30;54.20;;;;;;6223555;28;20493;-76
2021/08/25 07:29:21;;;;;;;7.72;2.58;;;23.30;53.90;;;;;;6223124;28;20030;-76
2021/08/25 07:32:22;;;;;;;3.53;1.75;;;23.20;53.90;;;;;;6234250;28;20520;-78
2021/08/25 07:35:24;;;;;;;4.30;2.10;;;23.30;54.00;;;;;;6231646;28;20419;-77
2021/08/25 07:38:25;;;;;;;3.75;2.13;;;23.30;54.00;;;;;;6248466;28;20347;-77
2021/08/25 07:41:26;;;;;;;4.43;2.00;;;23.30;54.10;;;;;;6248543;28;20191;-77
2021/08/25 07:44:27;;;;;;;3.33;2.17;;;23.30;54.10;;;;;;6249497;28;20041;-80
2021/08/25 07:47:28;;;;;;;3.20;2.13;;;23.30;54.00;;;;;;6247043;28;20037;-78
2021/08/25 07:50:29;;;;;;;3.22;2.20;;;23.40;54.00;;;;;;6248033;28;20033;-78
2021/08/25 07:53:30;;;;;;;6.13;2.22;;;23.40;54.00;;;;;;6247676;28;20453;-77
2021/08/25 07:56:31;;;;;;;3.35;2.08;;;23.40;53.90;;;;;;6230488;28;20041;-77
2021/08/25 07:59:32;;;;;;;4.55;2.40;;;23.50;53.80;;;;;;6224163;28;20025;-77
2021/08/25 08:02:36;;;;;;;3.85;2.47;;;23.60;53.70;;;;;;6228890;28;20033;-76
2021/08/25 08:05:37;;;;;;;4.18;1.85;;;23.60;53.60;;;;;;6230609;28;20064;-76
2021/08/25 08:08:38;;;;;;;5.35;2.03;;;23.70;53.50;;;;;;6247369;28;20136;-76
2021/08/25 08:11:39;;;;;;;4.18;2.20;;;23.60;53.30;;;;;;6247199;28;20423;-76
2021/08/25 08:14:41;;;;;;;3.35;2.20;;;23.70;53.40;;;;;;6230785;28;20470;-76
2021/08/25 08:17:46;;;;;;;3.17;1.75;;;23.70;53.30;;;;;;6246376;28;20072;-76
2021/08/25 08:20:48;;;;;;;6.40;2.05;;;23.70;53.10;;;;;;6230696;28;20034;-76
2021/08/25 08:23:49;;;;;;;4.60;2.22;;;23.70;53.10;;;;;;6247627;28;20037;-76
2021/08/25 08:26:53;;;;;;;3.92;1.98;;;23.70;53.00;;;;;;6231136;28;20040;-76
2021/08/25 08:30:02;;;;;;;3.08;1.83;;;23.80;53.10;;;;;;6234232;28;20479;-77
2021/08/25 08:33:07;;;;;;;5.10;2.60;;;23.90;52.80;;;;;;6236302;28;20352;-77
2021/08/25 08:36:08;;;;;;;3.92;1.73;;;24.10;52.40;;;;;;6247094;28;20097;-77
2021/08/25 08:39:10;;;;;;;5.22;2.20;;;24.30;51.80;;;;;;6231122;28;20037;-76
2021/08/25 08:42:34;;;;;;;5.82;2.03;;;24.30;51.60;;;;;;6248198;28;20030;-76
2021/08/25 08:45:40;;;;;;;4.47;2.20;;;24.50;51.30;;;;;;6243068;28;20462;-77
2021/08/25 08:48:43;;;;;;;9.35;2.33;;;24.60;51.10;;;;;;6246205;28;20037;-77
2021/08/25 08:51:45;;;;;;;3.30;1.80;;;24.70;50.90;;;;;;6228396;28;20064;-77
2021/08/25 08:54:46;;;;;;;3.83;1.73;;;24.70;50.60;;;;;;6234970;28;20354;-77
2021/08/25 08:57:47;;;;;;;2.70;2.05;;;24.70;50.50;;;;;;6246542;28;20044;-77
2021/08/25 09:00:48;;;;;;;4.13;2.08;;;24.70;50.40;;;;;;6229218;28;20478;-76
2021/08/25 09:03:49;;;;;;;4.03;2.30;;;24.90;50.50;;;;;;6229623;28;20438;-76
2021/08/25 09:06:50;;;;;;;2.63;1.70;;;25.00;49.70;;;;;;6229310;28;20051;-76
2021/08/25 09:09:56;;;;;;;6.00;2.95;;;25.10;49.60;;;;;;6244389;28;20048;-76
2021/08/25 09:13:10;;;;;;;3.42;2.10;;;25.20;49.60;;;;;;6244437;28;20033;-77
2021/08/25 09:16:25;;;;;;;17.70;6.63;;;25.30;49.40;;;;;;6242117;28;20038;-76
2021/08/25 09:19:34;;;;;;;19.15;7.88;;;25.40;49.30;;;;;;6239804;28;20048;-76
2021/08/25 09:22:36;;;;;;;15.25;8.07;;;25.60;48.80;;;;;;6242694;28;20480;-76
2021/08/25 09:25:37;;;;;;;3.70;2.40;;;25.70;48.10;;;;;;6244215;28;20038;-77
2021/08/25 09:28:38;;;;;;;3.88;2.13;;;25.80;47.80;;;;;;6245621;28;20423;-76
2021/08/25 09:31:44;;;;;;;5.15;2.13;;;25.80;47.70;;;;;;6242317;28;20034;-76
2021/08/25 09:34:45;;;;;;;5.40;1.90;;;25.90;47.60;;;;;;6243813;28;20091;-77
2021/08/25 09:37:54;;;;;;;4.82;2.80;;;26.00;47.20;;;;;;6243560;28;20067;-77
2021/08/25 09:41:04;;;;;;;2.60;1.83;;;26.00;46.80;;;;;;6225622;28;20402;-77
2021/08/25 09:44:15;;;;;;;3.15;1.77;;;26.00;46.50;;;;;;6243011;28;20030;-76
2021/08/25 09:47:16;;;;;;;4.10;2.03;;;26.00;46.60;;;;;;6242980;28;20087;-76
2021/08/25 09:50:20;;;;;;;4.07;2.17;;;26.00;46.30;;;;;;6242518;28;20064;-77
2021/08/25 09:53:21;;;;;;;6.20;1.75;;;26.10;46.00;;;;;;6241743;28;20069;-78
2021/08/25 09:56:25;;;;;;;2.90;1.55;;;26.10;45.80;;;;;;6243688;28;20470;-79
2021/08/25 09:59:29;;;;;;;3.80;1.52;;;26.30;45.60;;;;;;6218643;28;20050;-77
2021/08/25 10:02:30;;;;;;;3.30;1.60;;;26.30;45.20;;;;;;6224167;28;20041;-76
2021/08/25 10:05:31;;;;;;;2.90;1.77;;;26.40;44.80;;;;;;6227158;28;20033;-79
2021/08/25 10:08:38;;;;;;;5.22;1.33;;;26.40;44.10;;;;;;6239819;28;20033;-78
2021/08/25 10:11:45;;;;;;;5.63;2.90;;;26.40;44.00;;;;;;6245247;28;20057;-77
2021/08/25 10:14:46;;;;;;;3.65;1.80;;;26.40;44.10;;;;;;6219316;28;20064;-78
2021/08/25 10:17:47;;;;;;;2.88;1.63;;;26.40;44.40;;;;;;6243987;28;20042;-80
2021/08/25 10:20:48;;;;;;;3.88;1.80;;;26.50;44.20;;;;;;6233913;28;20566;-79
2021/08/25 10:23:58;;;;;;;4.22;1.67;;;26.50;44.20;;;;;;6225779;28;20034;-80
2021/08/25 10:26:59;;;;;;;2.47;1.70;;;26.50;44.30;;;;;;6247913;28;20094;-79
2021/08/25 10:30:10;;;;;;;3.80;2.05;;;26.60;44.20;;;;;;6231594;28;20046;-78
2021/08/25 10:33:12;;;;;;;5.68;2.22;;;26.70;43.80;;;;;;6246805;28;20037;-81
2021/08/25 10:36:22;;;;;;;3.85;2.42;;;26.90;43.90;;;;;;6214279;28;20073;-82
2021/08/25 10:39:33;;;;;;;8.10;2.30;;;26.90;43.60;;;;;;6248040;28;20029;-77
2021/08/25 10:42:43;;;;;;;3.53;1.90;;;27.10;43.50;;;;;;6206349;28;20220;-79
2021/08/25 10:45:44;;;;;;;2.63;1.80;;;27.10;43.30;;;;;;6237250;28;20435;-78
2021/08/25 10:48:49;;;;;;;5.72;2.00;;;27.20;43.30;;;;;;6229200;28;20038;-80
2021/08/25 10:51:50;;;;;;;4.18;2.70;;;27.60;42.70;;;;;;6217618;28;20038;-80
2021/08/25 10:54:51;;;;;;;8.05;4.63;;;28.10;41.80;;;;;;6219021;28;20042;-77
2021/08/25 10:57:52;;;;;;;7.55;1.80;;;28.60;41.30;;;;;;6211538;28;20071;-81
2021/08/25 11:00:53;;;;;;;9.75;3.88;;;29.20;40.50;;;;;;6221252;28;20109;-78
2021/08/25 11:03:56;;;;;;;4.15;2.10;;;29.70;39.70;;;;;;6223400;28;20037;-78
2021/08/25 11:07:02;;;;;;;3.88;2.70;;;30.00;38.80;;;;;;6247484;28;20048;-79
2021/08/25 11:10:03;;;;;;;3.83;2.10;;;30.40;38.40;;;;;;6225373;28;20041;-78
2021/08/25 11:13:04;;;;;;;5.03;2.00;;;30.60;37.70;;;;;;6224886;28;20042;-78
2021/08/25 11:16:25;;;;;;;4.65;2.08;;;30.80;37.50;;;;;;6224778;28;20119;-78
2021/08/25 11:19:32;;;;;;;3.95;2.20;;;31.10;36.90;;;;;;6228229;28;20108;-78
2021/08/25 11:22:44;;;;;;;4.90;2.20;;;31.30;36.60;;;;;;6235449;28;20076;-79
2021/08/25 11:25:54;;;;;;;2.88;1.60;;;31.60;36.00;;;;;;6196077;28;20065;-78
2021/08/25 11:28:55;;;;;;;2.25;1.75;;;31.80;35.50;;;;;;6221646;28;20041;-78
2021/08/25 11:32:02;;;;;;;2.35;2.10;;;32.00;35.30;;;;;;6223876;28;20045;-78
2021/08/25 11:35:04;;;;;;;8.90;2.30;;;32.20;35.10;;;;;;6245640;28;20075;-78
2021/08/25 11:38:15;;;;;;;2.30;1.95;;;32.30;34.70;;;;;;6227757;28;20033;-78
2021/08/25 11:41:16;;;;;;;3.47;1.90;;;32.50;34.80;;;;;;6247175;28;20131;-78
2021/08/25 11:44:55;;;;;;;5.47;1.75;;;32.70;34.60;;;;;;6228671;28;20038;-78
2021/08/25 11:47:58;;;;;;;6.30;1.80;;;32.80;34.20;;;;;;6178372;28;20412;-78
2021/08/25 11:50:59;;;;;;;5.25;2.05;;;33.00;33.90;;;;;;6196152;28;20046;-78
2021/08/25 11:54:00;;;;;;;11.38;2.03;;;33.30;33.50;;;;;;6161885;28;20460;-77
2021/08/25 11:57:01;;;;;;;2.92;2.20;;;33.60;33.00;;;;;;6163233;28;20026;-76
2021/08/25 12:00:03;;;;;;;3.05;2.22;;;33.80;32.30;;;;;;6164692;28;20157;-76
2021/08/25 12:03:12;;;;;;;2.35;1.40;;;34.00;31.90;;;;;;6166515;28;20030;-78
2021/08/25 12:06:15;;;;;;;3.00;1.98;;;34.30;31.80;;;;;;6162003;28;20094;-77
2021/08/25 12:09:33;;;;;;;3.05;1.80;;;34.60;31.40;;;;;;6179048;28;20052;-78
2021/08/25 12:12:46;;;;;;;3.45;1.95;;;35.00;30.90;;;;;;6177250;28;20042;-78
2021/08/25 12:15:49;;;;;;;2.47;2.00;;;35.20;29.60;;;;;;6193733;28;20431;-77
2021/08/25 12:18:54;;;;;;;6.15;1.67;;;35.20;29.70;;;;;;6209977;28;20038;-77
2021/08/25 12:21:55;;;;;;;4.00;1.70;;;35.30;29.50;;;;;;6220021;28;20038;-78
2021/08/25 12:24:58;;;;;;;2.20;1.65;;;35.60;29.10;;;;;;6245077;28;20438;-78
2021/08/25 12:27:59;;;;;;;5.10;1.80;;;35.90;28.70;;;;;;6245226;28;20470;-78
2021/08/25 12:31:13;;;;;;;2.90;1.60;;;36.10;28.20;;;;;;6244734;28;20051;-76
2021/08/25 12:34:33;;;;;;;5.43;1.88;;;36.30;27.70;;;;;;6242225;28;20041;-78
2021/08/25 12:37:50;;;;;;;5.93;1.90;;;36.30;27.80;;;;;;6240041;28;20025;-79
2021/08/25 12:40:51;;;;;;;4.57;2.05;;;36.70;27.50;;;;;;6244140;28;20044;-77
2021/08/25 12:43:52;;;;;;;2.78;1.88;;;37.20;27.30;;;;;;6244078;28;20103;-78
2021/08/25 12:47:01;;;;;;;4.47;2.00;;;37.80;27.50;;;;;;6225650;28;20025;-78
2021/08/25 12:50:02;;;;;;;2.45;1.50;;;38.30;26.60;;;;;;6224764;28;20163;-78
2021/08/25 12:53:03;;;;;;;5.25;1.60;;;38.90;26.10;;;;;;6236041;28;20470;-79
2021/08/25 12:56:04;;;;;;;2.60;1.77;;;39.40;25.70;;;;;;6241643;28;20071;-79
2021/08/25 12:59:05;;;;;;;2.38;1.67;;;40.10;25.20;;;;;;6240637;28;20065;-79
2021/08/25 13:02:06;;;;;;;1.80;1.35;;;40.60;24.60;;;;;;6240258;28;20033;-77
2021/08/25 13:05:11;;;;;;;1.65;1.20;;;41.00;24.30;;;;;;6242716;28;20446;-77
2021/08/25 13:08:12;;;;;;;3.03;1.60;;;41.20;23.70;;;;;;6240786;28;20536;-78
2021/08/25 13:11:13;;;;;;;2.85;1.67;;;41.60;23.50;;;;;;6241971;28;20029;-78
2021/08/25 13:14:14;;;;;;;6.93;1.50;;;41.70;23.10;;;;;;6219213;28;20098;-77
2021/08/25 13:17:15;;;;;;;3.47;1.80;;;42.00;22.90;;;;;;6224593;28;20045;-77
2021/08/25 13:20:16;;;;;;;6.05;1.85;;;42.40;22.40;;;;;;6213990;28;20045;-76
2021/08/25 13:23:17;;;;;;;2.20;1.70;;;42.80;22.20;;;;;;6235606;28;20419;-77
2021/08/25 13:26:19;;;;;;;2.20;1.60;;;43.10;21.80;;;;;;6241308;28;20030;-78
2021/08/25 13:29:20;;;;;;;1.95;1.48;;;43.40;21.40;;;;;;6247322;28;20037;-77
2021/08/25 13:32:21;;;;;;;1.92;1.50;;;43.50;21.30;;;;;;6239716;28;20099;-78
2021/08/25 13:35:22;;;;;;;3.53;1.33;;;43.40;21.10;;;;;;6240995;28;20107;-77
2021/08/25 13:38:22;;;;;;;5.10;1.50;;;43.10;21.20;;;;;;6224359;28;20061;-76
2021/08/25 13:41:23;;;;;;;1.88;1.52;;;43.00;21.00;;;;;;6241092;28;20451;-77
2021/08/25 13:44:25;;;;;;;1.88;1.50;;;43.00;21.10;;;;;;6241220;28;20095;-77
2021/08/25 13:47:26;;;;;;;3.40;1.60;;;43.20;21.00;;;;;;6239101;28;20131;-77
2021/08/25 13:50:27;;;;;;;5.70;1.50;;;43.20;20.90;;;;;;6225096;28;20071;-77
2021/08/25 13:53:28;;;;;;;2.92;1.40;;;43.40;20.90;;;;;;6240621;28;20060;-77
2021/08/25 13:56:29;;;;;;;3.95;1.63;;;43.50;20.90;;;;;;6240370;28;20048;-78
2021/08/25 13:59:30;;;;;;;3.53;1.50;;;43.70;20.90;;;;;;6212569;28;20040;-77
2021/08/25 14:02:31;;;;;;;1.70;1.42;;;44.10;20.70;;;;;;6223135;28;20052;-77
2021/08/25 14:05:32;;;;;;;3.55;1.52;;;44.20;20.60;;;;;;6238624;28;20191;-78
2021/08/25 14:08:33;;;;;;;6.35;1.67;;;44.50;20.50;;;;;;6241637;28;20086;-77
2021/08/25 14:11:34;;;;;;;7.25;1.65;;;44.50;20.50;;;;;;6225180;28;20047;-77
2021/08/25 14:14:35;;;;;;;4.85;1.70;;;44.30;20.70;;;;;;6241168;28;20100;-77
2021/08/25 14:17:35;;;;;;;6.05;1.98;;;43.60;21.10;;;;;;6242466;28;21604;-76
2021/08/25 14:20:36;;;;;;;1.83;1.50;;;42.50;22.00;;;;;;6220488;28;20072;-77
2021/08/25 14:23:38;;;;;;;2.45;2.08;;;41.20;23.20;;;;;;6235091;28;20029;-78
2021/08/25 14:26:40;;;;;;;4.20;1.40;;;39.90;24.30;;;;;;6238772;28;20037;-78
2021/08/25 14:29:41;;;;;;;1.83;1.70;;;38.80;25.30;;;;;;6253238;28;20065;-78
2021/08/25 14:32:42;;;;;;;7.00;1.90;;;38.00;26.20;;;;;;6240557;28;20482;-77
2021/08/25 14:35:43;;;;;;;2.47;1.90;;;37.00;27.00;;;;;;6243589;28;20053;-78
2021/08/25 14:38:44;;;;;;;3.42;1.63;;;36.20;27.90;;;;;;6224479;28;20033;-78
2021/08/25 14:41:45;;;;;;;3.92;1.80;;;35.30;28.70;;;;;;6222757;28;20056;-77
2021/08/25 14:44:46;;;;;;;6.75;1.77;;;34.70;29.60;;;;;;6241419;28;20029;-76
2021/08/25 14:47:48;;;;;;;3.13;1.73;;;34.20;30.20;;;;;;6237992;28;20029;-76
2021/08/25 14:50:49;;;;;;;3.58;2.00;;;33.70;30.90;;;;;;6240830;28;20034;-75
2021/08/25 14:53:49;;;;;;;4.40;1.67;;;33.30;31.50;;;;;;6223270;28;20056;-78
2021/08/25 14:56:50;;;;;;;3.70;1.88;;;33.00;32.40;;;;;;6241162;28;20111;-79
2021/08/25 14:59:51;;;;;;;1.70;1.50;;;32.60;32.90;;;;;;6240997;28;20088;-78
2021/08/25 15:02:53;;;;;;;6.00;1.70;;;32.30;33.60;;;;;;6223391;28;20044;-77
2021/08/25 15:05:56;;;;;;;4.70;1.80;;;32.00;33.80;;;;;;6237787;28;20060;-79
2021/08/25 15:08:57;;;;;;;9.07;1.90;;;31.90;34.30;;;;;;6240603;28;20083;-77
2021/08/25 15:11:58;;;;;;;9.98;1.67;;;31.70;34.60;;;;;;6227058;28;20030;-77
2021/08/25 15:14:59;;;;;;;4.25;1.92;;;31.60;35.10;;;;;;6244211;28;20132;-77
2021/08/25 15:18:00;;;;;;;5.78;1.70;;;31.50;35.30;;;;;;6227792;28;20034;-78
2021/08/25 15:21:01;;;;;;;4.93;1.92;;;31.50;35.70;;;;;;6247090;28;20120;-78
2021/08/25 15:24:02;;;;;;;2.58;1.92;;;31.40;35.60;;;;;;6252919;28;20036;-78
2021/08/25 15:27:03;;;;;;;3.95;2.17;;;31.50;35.70;;;;;;6227329;28;20037;-76
2021/08/25 15:30:06;;;;;;;8.57;1.85;;;31.40;35.60;;;;;;6246061;28;20057;-77
2021/08/25 15:33:09;;;;;;;3.67;1.90;;;31.40;35.70;;;;;;6226656;28;20033;-78
2021/08/25 15:36:14;;;;;;;2.03;1.42;;;31.30;35.70;;;;;;6245252;28;20044;-78
2021/08/25 15:39:16;;;;;;;2.90;1.85;;;31.30;36.30;;;;;;6226643;28;20064;-78
2021/08/25 15:42:18;;;;;;;3.42;1.55;;;31.40;35.70;;;;;;6243604;28;20037;-77
2021/08/25 15:45:19;;;;;;;3.45;1.90;;;31.40;35.70;;;;;;6244838;28;20374;-77
2021/08/25 15:48:20;;;;;;;4.90;1.83;;;31.40;35.70;;;;;;6243537;28;20034;-78